createdAt,value
2017-08-25T00:00:21.243Z,65.82
2017-08-25T00:01:31.584Z,65.82
2017-08-25T00:02:41.669Z,65.63
2017-08-25T00:03:51.700Z,65.85
2017-08-25T00:05:02.044Z,65.56
2017-08-25T00:06:12.375Z,65.56
2017-08-25T00:07:22.396Z,65.79
2017-08-25T00:08:32.801Z,65.59
2017-08-25T00:09:43.158Z,65.59
2017-08-25T00:10:53.513Z,66.08
2017-08-25T00:12:03.891Z,66.3
2017-08-25T00:13:13.951Z,66.11
2017-08-25T00:14:24.332Z,66.4
2017-08-25T00:15:34.363Z,66.3
2017-08-25T00:16:44.707Z,66.4
2017-08-25T00:17:56.053Z,66.11
2017-08-25T00:19:06.395Z,66.05
2017-08-25T00:20:16.480Z,66.24
2017-08-25T00:21:28.709Z,66.34
2017-08-25T00:22:38.423Z,65.95
2017-08-25T00:23:48.466Z,66.43
2017-08-25T00:24:58.815Z,66.24
2017-08-25T00:26:09.226Z,66.08
2017-08-25T00:27:19.577Z,66.56
2017-08-25T00:28:29.927Z,66.47
2017-08-25T00:29:40.280Z,66.56
2017-08-25T00:30:50.324Z,66.47
2017-08-25T00:32:02.069Z,66.37
2017-08-25T00:33:12.093Z,66.27
2017-08-25T00:34:22.453Z,66.37
2017-08-25T00:35:32.839Z,66.5
2017-08-25T00:36:43.181Z,66.5
2017-08-25T00:37:53.258Z,66.69
2017-08-25T00:39:03.605Z,67.08
2017-08-25T00:40:13.951Z,66.6
2017-08-25T00:41:26.437Z,66.69
2017-08-25T00:42:36.473Z,66.99
2017-08-25T00:43:46.873Z,67.18
2017-08-25T00:44:56.593Z,66.6
2017-08-25T00:46:06.941Z,66.69
2017-08-25T00:47:17.301Z,66.79
2017-08-25T00:48:27.658Z,66.79
2017-08-25T00:49:38.052Z,66.6
2017-08-25T00:50:48.069Z,67.37
2017-08-25T00:51:58.408Z,67.37
2017-08-25T00:53:08.780Z,66.99
2017-08-25T00:54:19.142Z,67.08
2017-08-25T00:55:29.527Z,66.99
2017-08-25T00:56:39.883Z,66.99
2017-08-25T00:57:50.225Z,67.47
2017-08-25T00:59:00.246Z,66.99
2017-08-25T01:00:10.588Z,66.99
2017-08-25T01:01:20.992Z,66.92
2017-08-25T01:02:31.019Z,67.02
2017-08-25T01:03:41.044Z,67.18
2017-08-25T01:04:51.392Z,67.21
2017-08-25T01:06:01.737Z,66.92
2017-08-25T01:07:12.117Z,67.4
2017-08-25T01:08:22.150Z,67.37
2017-08-25T01:09:32.482Z,67.11
2017-08-25T01:10:42.828Z,67.47
2017-08-25T01:11:53.164Z,67.6
2017-08-25T01:13:03.248Z,67.18
2017-08-25T01:14:13.332Z,67.08
2017-08-25T01:15:23.675Z,67.08
2017-08-25T01:16:34.031Z,67.37
2017-08-25T01:17:44.373Z,67.18
2017-08-25T01:18:54.770Z,67.08
2017-08-25T01:20:06.153Z,67.57
2017-08-25T01:21:16.503Z,67.18
2017-08-25T01:22:26.861Z,67.57
2017-08-25T01:23:36.883Z,67.18
2017-08-25T01:24:47.266Z,67.18
2017-08-25T01:25:57.631Z,67.27
2017-08-25T01:27:07.337Z,67.37
2017-08-25T01:28:17.713Z,67.18
2017-08-25T01:29:28.052Z,67.18
2017-08-25T01:30:37.817Z,67.05
2017-08-25T01:31:48.165Z,67.34
2017-08-25T01:32:58.505Z,67.34
2017-08-25T01:34:08.844Z,67.34
2017-08-25T01:35:19.207Z,67.34
2017-08-25T01:36:29.621Z,67.63
2017-08-25T01:37:39.963Z,67.34
2017-08-25T01:38:50.341Z,67.24
2017-08-25T01:40:00.371Z,67.14
2017-08-25T01:41:10.718Z,67.14
2017-08-25T01:42:20.826Z,67.14
2017-08-25T01:43:30.848Z,67.34
2017-08-25T01:44:40.887Z,67.53
2017-08-25T01:45:51.791Z,67.24
2017-08-25T01:47:02.147Z,67.24
2017-08-25T01:48:12.534Z,67.53
2017-08-25T01:49:22.567Z,67.05
2017-08-25T01:50:32.899Z,67.14
2017-08-25T01:51:43.255Z,67.34
2017-08-25T01:52:53.591Z,67.44
2017-08-25T01:54:04.025Z,67.05
2017-08-25T01:55:13.752Z,67.14
2017-08-25T01:56:24.088Z,67.53
2017-08-25T01:57:34.429Z,67.53
2017-08-25T01:58:44.460Z,66.95
2017-08-25T01:59:54.847Z,66.95
2017-08-25T02:01:05.198Z,66.95
2017-08-25T02:02:15.543Z,66.95
2017-08-25T02:03:25.607Z,66.95
2017-08-25T02:04:35.955Z,67.05
2017-08-25T02:05:46.371Z,67.05
2017-08-25T02:06:56.389Z,67.05
2017-08-25T02:08:06.724Z,67.05
2017-08-25T02:09:17.097Z,67.14
2017-08-25T02:10:27.446Z,67.14
2017-08-25T02:11:37.542Z,66.56
2017-08-25T02:12:47.571Z,66.56
2017-08-25T02:13:57.834Z,66.47
2017-08-25T02:15:08.194Z,66.75
2017-08-25T02:16:18.221Z,66.75
2017-08-25T02:17:28.626Z,66.66
2017-08-25T02:18:39.876Z,66.85
2017-08-25T02:19:50.232Z,66.85
2017-08-25T02:21:00.584Z,66.75
2017-08-25T02:22:10.933Z,66.43
2017-08-25T02:23:21.032Z,66.75
2017-08-25T02:24:31.381Z,66.82
2017-08-25T02:25:41.416Z,66.63
2017-08-25T02:26:51.772Z,66.66
2017-08-25T02:28:02.120Z,66.66
2017-08-25T02:29:12.519Z,66.92
2017-08-25T02:30:22.897Z,66.92
2017-08-25T02:31:33.247Z,67.02
2017-08-25T02:32:43.600Z,67.11
2017-08-25T02:33:53.960Z,67.21
2017-08-25T02:35:04.349Z,67.21
2017-08-25T02:36:14.378Z,67.21
2017-08-25T02:37:24.421Z,67.05
2017-08-25T02:38:34.762Z,66.66
2017-08-25T02:39:45.134Z,67.05
2017-08-25T02:40:55.569Z,66.47
2017-08-25T02:42:05.598Z,66.66
2017-08-25T02:43:15.956Z,66.17
2017-08-25T02:44:25.984Z,66.34
2017-08-25T02:45:36.341Z,66.27
2017-08-25T02:46:46.735Z,66.34
2017-08-25T02:47:57.085Z,66.24
2017-08-25T02:49:07.442Z,66.27
2017-08-25T02:50:17.794Z,66.34
2017-08-25T02:51:27.830Z,66.37
2017-08-25T02:52:38.227Z,66.47
2017-08-25T02:53:48.569Z,66.37
2017-08-25T02:54:58.609Z,66.34
2017-08-25T02:56:08.958Z,66.34
2017-08-25T02:57:19.332Z,66.37
2017-08-25T02:58:29.733Z,66.14
2017-08-25T02:59:40.106Z,66.34
2017-08-25T03:00:50.464Z,66.14
2017-08-25T03:33:12.880Z,64.24
2017-08-25T03:34:22.580Z,64.53
2017-08-25T03:35:32.590Z,65.01
2017-08-25T03:36:42.920Z,65.4
2017-08-25T03:37:53.278Z,65.78
2017-08-25T03:39:03.704Z,66.27
2017-08-25T03:40:14.058Z,66.85
2017-08-25T03:41:24.411Z,66.85
2017-08-25T03:42:34.762Z,67.04
2017-08-25T03:43:45.108Z,66.97
2017-08-25T03:44:55.186Z,67.36
2017-08-25T03:46:05.529Z,67.27
2017-08-25T03:47:15.555Z,67.3
2017-08-25T03:48:25.573Z,67.11
2017-08-25T03:49:38.104Z,67.2
2017-08-25T03:50:47.876Z,67.14
2017-08-25T03:51:58.231Z,66.94
2017-08-25T03:53:08.562Z,67.33
2017-08-25T03:54:18.902Z,66.94
2017-08-25T03:55:28.942Z,66.78
2017-08-25T03:56:39.016Z,66.98
2017-08-25T03:57:49.352Z,66.3
2017-08-25T03:58:59.709Z,66.5
2017-08-25T04:00:10.069Z,66.3
2017-08-25T04:01:20.410Z,66.69
2017-08-25T04:02:30.818Z,66.43
2017-08-25T04:03:41.164Z,67.11
2017-08-25T04:04:51.495Z,66.33
2017-08-25T04:06:01.528Z,66.24
2017-08-25T04:07:11.555Z,66.33
2017-08-25T04:08:21.939Z,66.33
2017-08-25T04:09:32.292Z,66.53
2017-08-25T04:10:42.634Z,66.43
2017-08-25T04:11:53.212Z,66.33
2017-08-25T04:13:02.910Z,66.17
2017-08-25T04:14:13.307Z,66.24
2017-08-25T04:15:23.649Z,66.08
2017-08-25T04:16:33.681Z,66.08
2017-08-25T04:17:43.710Z,66.17
2017-08-25T04:18:54.037Z,66.27
2017-08-25T04:20:04.123Z,66.37
2017-08-25T04:21:14.146Z,66.27
2017-08-25T04:22:24.484Z,66.08
2017-08-25T04:23:34.214Z,66.27
2017-08-25T04:24:44.554Z,66.27
2017-08-25T04:25:54.947Z,66.27
2017-08-25T04:27:05.303Z,66.17
2017-08-25T04:28:15.657Z,66.37
2017-08-25T04:29:25.704Z,66.3
2017-08-25T04:30:36.055Z,66.11
2017-08-25T04:31:46.138Z,66.11
2017-08-25T04:32:56.158Z,66.2
2017-08-25T04:34:06.502Z,65.82
2017-08-25T04:35:16.516Z,65.92
2017-08-25T04:36:26.220Z,65.72
2017-08-25T04:37:36.612Z,65.82
2017-08-25T04:38:46.941Z,65.63
2017-08-25T04:39:57.298Z,65.63
2017-08-25T04:41:07.318Z,65.63
2017-08-25T04:42:17.674Z,65.66
2017-08-25T04:43:27.748Z,65.75
2017-08-25T04:44:38.101Z,65.66
2017-08-25T04:45:48.434Z,65.85
2017-08-25T04:46:58.786Z,65.66
2017-08-25T04:48:09.131Z,65.95
2017-08-25T04:49:19.518Z,65.75
2017-08-25T04:50:29.875Z,65.66
2017-08-25T04:51:39.917Z,65.66
2017-08-25T04:52:50.250Z,65.89
2017-08-25T04:54:00.290Z,65.95
2017-08-25T04:55:10.363Z,65.85
2017-08-25T04:56:20.391Z,66.05
2017-08-25T04:57:30.416Z,65.3
2017-08-25T04:58:40.436Z,64.53
2017-08-25T04:59:50.779Z,64.85
2017-08-25T05:01:00.852Z,65.05
2017-08-25T05:02:11.174Z,65.43
2017-08-25T05:03:21.513Z,65.05
2017-08-25T05:04:31.863Z,65.34
2017-08-25T05:05:41.883Z,65.14
2017-08-25T05:06:52.302Z,65.34
2017-08-25T05:08:02.331Z,65.34
2017-08-25T05:09:12.671Z,64.5
2017-08-25T05:10:22.701Z,65.01
2017-08-25T05:11:32.756Z,65.4
2017-08-25T05:12:43.141Z,64.98
2017-08-25T05:13:53.480Z,65.17
2017-08-25T05:15:03.818Z,65.66
2017-08-25T05:16:13.859Z,65.75
2017-08-25T05:17:23.911Z,65.56
2017-08-25T05:18:34.308Z,65.66
2017-08-25T05:19:46.146Z,65.37
2017-08-25T05:20:56.486Z,65.47
2017-08-25T05:22:06.828Z,65.08
2017-08-25T05:23:16.543Z,65.27
2017-08-25T05:24:26.297Z,64.98
2017-08-25T05:25:36.664Z,65.4
2017-08-25T05:26:47.002Z,64.92
2017-08-25T05:27:57.024Z,65.01
2017-08-25T05:29:07.063Z,65.5
2017-08-25T05:30:17.470Z,65.5
2017-08-25T05:31:27.829Z,65.4
2017-08-25T05:32:38.199Z,64.92
2017-08-25T05:33:48.235Z,64.92
2017-08-25T05:34:58.587Z,64.56
2017-08-25T05:36:08.983Z,64.75
2017-08-25T05:37:19.329Z,64.85
2017-08-25T05:38:29.342Z,64.95
2017-08-25T05:39:39.694Z,64.95
2017-08-25T05:40:50.051Z,64.85
2017-08-25T05:42:00.121Z,64.2
2017-08-25T05:43:09.835Z,64.72
2017-08-25T05:44:20.171Z,64.53
2017-08-25T05:45:30.521Z,64.23
2017-08-25T05:46:40.534Z,63.84
2017-08-25T05:47:50.917Z,62.84
2017-08-25T05:49:00.953Z,62.6
2017-08-25T05:50:13.337Z,63.09
2017-08-25T05:51:23.691Z,64.07
2017-08-25T05:52:34.044Z,64.72
2017-08-25T05:53:44.442Z,65.01
2017-08-25T05:54:54.780Z,64.91
2017-08-25T05:56:05.116Z,64.04
2017-08-25T05:57:15.137Z,64.13
2017-08-25T05:58:25.163Z,64.17
2017-08-25T05:59:35.554Z,64.36
2017-08-25T06:00:45.592Z,64.29
2017-08-25T06:01:55.959Z,64.1
2017-08-25T06:03:05.993Z,63.25
2017-08-25T06:04:16.017Z,62.79
2017-08-25T06:05:26.409Z,62.99
2017-08-25T06:06:36.772Z,63.57
2017-08-25T06:07:46.783Z,64.16
2017-08-25T06:08:56.822Z,64.36
2017-08-25T06:10:07.183Z,64.06
2017-08-25T06:11:17.584Z,64.26
2017-08-25T06:12:27.925Z,63.96
2017-08-25T06:13:37.956Z,64.45
2017-08-25T06:14:47.988Z,63.96
2017-08-25T06:15:58.011Z,64.32
2017-08-25T06:17:08.400Z,64.91
2017-08-25T06:18:18.993Z,64.72
2017-08-25T06:19:29.335Z,64.91
2017-08-25T06:20:40.236Z,65.11
2017-08-25T06:21:50.256Z,65.17
2017-08-25T06:23:00.659Z,65.17
2017-08-25T06:24:10.683Z,64.87
2017-08-25T06:25:21.379Z,65.07
2017-08-25T06:26:31.745Z,65.36
2017-08-25T06:27:41.769Z,65.63
2017-08-25T06:28:52.153Z,65.63
2017-08-25T06:30:02.497Z,65.63
2017-08-25T06:31:12.852Z,65.33
2017-08-25T06:32:23.184Z,65.23
2017-08-25T06:33:33.532Z,65.14
2017-08-25T06:34:43.971Z,64.84
2017-08-25T06:35:54.305Z,64.94
2017-08-25T06:37:06.708Z,64.94
2017-08-25T06:38:17.080Z,64.55
2017-08-25T06:39:27.427Z,64.84
2017-08-25T06:40:37.507Z,64.59
2017-08-25T06:41:47.793Z,64.07
2017-08-25T06:42:58.157Z,64.2
2017-08-25T06:44:08.498Z,64.29
2017-08-25T06:45:18.839Z,64.29
2017-08-25T06:46:28.596Z,64.36
2017-08-25T06:47:38.615Z,64.55
2017-08-25T06:48:48.639Z,65.23
2017-08-25T06:49:59.022Z,64.94
2017-08-25T06:51:09.058Z,65.3
2017-08-25T06:52:19.455Z,64.81
2017-08-25T06:53:29.801Z,65.3
2017-08-25T06:54:40.148Z,65.2
2017-08-25T06:55:50.521Z,65.2
2017-08-25T06:57:00.564Z,65.3
2017-08-25T06:58:10.638Z,65.3
2017-08-25T06:59:21.006Z,65.3
2017-08-25T07:00:31.357Z,65.4
2017-08-25T07:01:43.298Z,65.3
2017-08-25T07:02:53.646Z,65.4
2017-08-25T07:04:03.727Z,65.59
2017-08-25T07:05:13.757Z,65.4
2017-08-25T07:06:24.108Z,65.11
2017-08-25T07:07:34.452Z,65.11
2017-08-25T07:08:44.160Z,64.62
2017-08-25T07:09:54.230Z,64.52
2017-08-25T07:11:04.277Z,64.36
2017-08-25T07:12:14.612Z,64.45
2017-08-25T07:13:24.901Z,64.84
2017-08-25T07:14:34.928Z,64.84
2017-08-25T07:15:45.634Z,64.26
2017-08-25T07:16:55.978Z,64.26
2017-08-25T07:18:06.329Z,64.26
2017-08-25T07:19:17.578Z,64.39
2017-08-25T07:20:29.855Z,64.2
2017-08-25T07:21:42.157Z,64
2017-08-25T07:22:52.510Z,64.32
2017-08-25T07:24:02.849Z,64.39
2017-08-25T07:25:13.210Z,64.23
2017-08-25T07:26:23.553Z,64.52
2017-08-25T07:27:33.958Z,64.52
2017-08-25T07:28:44.324Z,64.52
2017-08-25T07:29:54.352Z,64.13
2017-08-25T07:31:04.069Z,64.23
2017-08-25T07:32:14.413Z,64.42
2017-08-25T07:33:24.830Z,64.42
2017-08-25T07:34:34.870Z,64.78
2017-08-25T07:35:45.219Z,64.59
2017-08-25T07:36:55.569Z,64.87
2017-08-25T07:38:05.938Z,64.69
2017-08-25T07:39:15.700Z,65.26
2017-08-25T07:40:26.056Z,64.59
2017-08-25T07:41:36.406Z,64.78
2017-08-25T07:42:46.122Z,63.81
2017-08-25T07:43:55.839Z,64.42
2017-08-25T07:45:06.182Z,64.13
2017-08-25T07:46:16.548Z,63.67
2017-08-25T07:47:26.888Z,63.41
2017-08-25T07:48:37.283Z,63.02
2017-08-25T07:49:47.634Z,63.34
2017-08-25T07:50:57.993Z,62.5
2017-08-25T07:52:08.356Z,62.6
2017-08-25T07:53:18.764Z,62.23
2017-08-25T07:54:30.045Z,62.13
2017-08-25T07:55:40.051Z,61.97
2017-08-25T07:56:50.407Z,61.87
2017-08-25T07:58:00.755Z,62.95
2017-08-25T07:59:11.102Z,61.87
2017-08-25T08:00:21.459Z,62
2017-08-25T08:01:31.496Z,62
2017-08-25T08:02:41.574Z,62.62
2017-08-25T08:03:51.925Z,62.92
2017-08-25T08:05:02.286Z,63.18
2017-08-25T08:06:12.648Z,62.79
2017-08-25T08:07:22.695Z,63.18
2017-08-25T08:08:33.099Z,63.57
2017-08-25T08:09:43.464Z,63.44
2017-08-25T08:10:53.806Z,64.12
2017-08-25T08:12:03.520Z,63.73
2017-08-25T08:13:13.543Z,64.22
2017-08-25T08:14:23.963Z,64.48
2017-08-25T08:15:34.662Z,64.39
2017-08-25T08:16:45.054Z,64.39
2017-08-25T08:17:55.084Z,64.48
2017-08-25T08:19:05.465Z,63.8
2017-08-25T08:20:15.887Z,63.7
2017-08-25T08:21:26.247Z,64.03
2017-08-25T08:22:36.282Z,63.73
2017-08-25T08:23:46.682Z,63.93
2017-08-25T08:24:56.708Z,64.32
2017-08-25T08:26:07.118Z,64.19
2017-08-25T08:27:17.150Z,64.19
2017-08-25T08:28:29.661Z,64.48
2017-08-25T08:29:39.682Z,64.48
2017-08-25T08:30:50.024Z,64.39
2017-08-25T08:31:59.484Z,64.19
2017-08-25T08:33:09.872Z,64.19
2017-08-25T08:34:19.937Z,64.22
2017-08-25T08:35:30.272Z,63.64
2017-08-25T08:36:39.995Z,64.03
2017-08-25T08:37:50.389Z,63.93
2017-08-25T08:39:00.754Z,63.83
2017-08-25T08:40:10.799Z,63.64
2017-08-25T08:41:21.140Z,63.83
2017-08-25T08:42:31.483Z,63.93
2017-08-25T08:43:41.887Z,63.64
2017-08-25T08:44:51.924Z,63.54
2017-08-25T08:46:02.276Z,63.73
2017-08-25T08:47:12.610Z,63.83
2017-08-25T08:48:22.664Z,64.12
2017-08-25T08:49:32.782Z,63.73
2017-08-25T08:50:43.144Z,63.73
2017-08-25T08:51:53.491Z,64.42
2017-08-25T08:53:03.853Z,64.51
2017-08-25T08:54:14.193Z,64.42
2017-08-25T08:55:24.283Z,64.03
2017-08-25T08:56:34.637Z,64.22
2017-08-25T08:57:44.994Z,64.51
2017-08-25T08:58:55.341Z,64.61
2017-08-25T09:00:05.709Z,64.42
2017-08-25T09:01:16.114Z,64.03
2017-08-25T09:02:26.471Z,63.67
2017-08-25T09:03:36.865Z,63.28
2017-08-25T09:04:47.202Z,63.5
2017-08-25T09:05:57.553Z,63.4
2017-08-25T09:07:07.949Z,63.6
2017-08-25T09:08:18.300Z,63.5
2017-08-25T09:09:28.649Z,63.4
2017-08-25T09:10:38.995Z,63.6
2017-08-25T09:11:49.352Z,63.4
2017-08-25T09:12:59.752Z,63.6
2017-08-25T09:14:14.304Z,63.53
2017-08-25T09:15:24.021Z,63.6
2017-08-25T09:16:34.073Z,63.6
2017-08-25T09:17:44.422Z,63.82
2017-08-25T09:18:54.216Z,63.73
2017-08-25T09:20:04.562Z,63.7
2017-08-25T09:21:14.602Z,63.43
2017-08-25T09:22:24.009Z,63.82
2017-08-25T09:23:34.034Z,63.82
2017-08-25T09:24:44.373Z,63.43
2017-08-25T09:25:54.743Z,63.34
2017-08-25T09:27:04.778Z,63.66
2017-08-25T09:28:14.881Z,63.24
2017-08-25T09:29:24.923Z,63.27
2017-08-25T09:30:35.298Z,63.66
2017-08-25T09:31:45.636Z,63.46
2017-08-25T09:32:55.368Z,63.46
2017-08-25T09:34:08.057Z,63.27
2017-08-25T09:35:18.112Z,63.66
2017-08-25T09:36:27.830Z,63.46
2017-08-25T09:37:38.178Z,63.49
2017-08-25T09:38:48.217Z,63.66
2017-08-25T09:39:58.625Z,63.66
2017-08-25T09:41:08.991Z,63.59
2017-08-25T09:42:19.345Z,63.59
2017-08-25T09:43:29.689Z,63.69
2017-08-25T09:44:43.447Z,63.79
2017-08-25T09:45:53.871Z,63.3
2017-08-25T09:47:03.909Z,63.4
2017-08-25T09:48:14.259Z,63.69
2017-08-25T09:49:23.974Z,63.49
2017-08-25T09:50:34.049Z,63.72
2017-08-25T09:51:44.144Z,63.3
2017-08-25T09:52:53.876Z,63.3
2017-08-25T09:54:03.956Z,63.69
2017-08-25T09:55:13.997Z,63.4
2017-08-25T09:56:24.365Z,63.69
2017-08-25T09:57:34.771Z,63.33
2017-08-25T09:58:44.787Z,63.43
2017-08-25T09:59:55.149Z,63.72
2017-08-25T10:01:05.210Z,63.72
2017-08-25T10:02:15.579Z,63.92
2017-08-25T10:03:25.665Z,63.82
2017-08-25T10:04:35.692Z,63.62
2017-08-25T10:05:45.724Z,63.23
2017-08-25T10:06:56.078Z,63.26
2017-08-25T10:08:06.111Z,63.36
2017-08-25T10:09:16.510Z,63.46
2017-08-25T10:10:28.456Z,63.72
2017-08-25T10:11:38.489Z,63.46
2017-08-25T10:12:48.522Z,63.75
2017-08-25T10:14:02.284Z,63.26
2017-08-25T10:15:12.689Z,63.36
2017-08-25T10:16:23.043Z,63.65
2017-08-25T10:17:33.077Z,63.75
2017-08-25T10:18:43.117Z,63.26
2017-08-25T10:19:53.512Z,63.56
2017-08-25T10:21:03.916Z,63.46
2017-08-25T10:22:13.978Z,63.29
2017-08-25T10:23:24.335Z,63.29
2017-08-25T10:24:34.382Z,63.39
2017-08-25T10:25:44.668Z,63.49
2017-08-25T10:26:55.064Z,63.49
2017-08-25T10:28:05.410Z,63.59
2017-08-25T10:29:15.439Z,63.52
2017-08-25T10:30:25.833Z,63.32
2017-08-25T10:31:35.842Z,63.32
2017-08-25T10:32:46.261Z,63.23
2017-08-25T10:33:56.307Z,63.62
2017-08-25T10:35:06.662Z,63.23
2017-08-25T10:36:17.009Z,62.76
2017-08-25T10:37:27.365Z,62.76
2017-08-25T10:38:37.772Z,63.26
2017-08-25T10:39:47.818Z,62.76
2017-08-25T10:40:58.177Z,63.35
2017-08-25T10:42:08.222Z,63.06
2017-08-25T10:43:18.560Z,62.87
2017-08-25T10:44:28.651Z,63.26
2017-08-25T10:45:39.018Z,63.35
2017-08-25T10:46:49.385Z,63.75
2017-08-25T10:47:59.725Z,63.26
2017-08-25T10:49:10.097Z,63.75
2017-08-25T10:50:22.439Z,63.29
2017-08-25T10:51:32.795Z,63.39
2017-08-25T10:52:43.161Z,62.9
2017-08-25T10:53:53.191Z,62.99
2017-08-25T10:55:03.599Z,62.99
2017-08-25T10:56:13.955Z,63.09
2017-08-25T10:57:24.331Z,63.02
2017-08-25T10:58:34.713Z,63.02
2017-08-25T10:59:44.769Z,62.93
2017-08-25T11:00:55.181Z,63.12
2017-08-25T11:02:05.539Z,63.12
2017-08-25T11:03:15.886Z,63.45
2017-08-25T11:04:26.251Z,63.54
2017-08-25T11:05:36.631Z,63.35
2017-08-25T11:06:47.038Z,63.15
2017-08-25T11:07:57.081Z,62.96
2017-08-25T11:09:07.129Z,63.15
2017-08-25T11:10:17.476Z,63.15
2017-08-25T11:11:27.833Z,63.06
2017-08-25T11:12:38.195Z,63.06
2017-08-25T11:13:48.545Z,63.06
2017-08-25T11:14:58.623Z,62.96
2017-08-25T11:16:08.974Z,63.25
2017-08-25T11:17:19.327Z,62.96
2017-08-25T11:18:29.689Z,63.15
2017-08-25T11:19:40.040Z,63.35
2017-08-25T11:20:50.137Z,63.06
2017-08-25T11:22:00.476Z,63.45
2017-08-25T11:23:10.821Z,63.28
2017-08-25T11:24:21.178Z,62.79
2017-08-25T11:25:33.181Z,62.88
2017-08-25T11:26:43.280Z,62.69
2017-08-25T11:27:53.632Z,62.59
2017-08-25T11:29:03.684Z,62.49
2017-08-25T11:30:13.400Z,62.49
2017-08-25T11:31:23.745Z,62.88
2017-08-25T11:32:34.165Z,62.69
2017-08-25T11:33:44.521Z,62.59
2017-08-25T11:34:54.555Z,63.38
2017-08-25T11:36:04.915Z,62.99
2017-08-25T11:37:15.300Z,63.38
2017-08-25T11:38:25.714Z,63.38
2017-08-25T11:39:36.085Z,63.38
2017-08-25T11:40:46.438Z,63.35
2017-08-25T11:41:56.785Z,63.57
2017-08-25T11:43:07.140Z,63.28
2017-08-25T11:44:17.552Z,63.64
2017-08-25T11:45:27.585Z,63.06
2017-08-25T11:46:37.951Z,62.85
2017-08-25T11:47:48.302Z,63.25
2017-08-25T11:48:58.665Z,62.85
2017-08-25T11:50:09.081Z,62.88
2017-08-25T11:51:19.428Z,62.49
2017-08-25T11:52:29.784Z,62.59
2017-08-25T11:53:39.838Z,62.13
2017-08-25T11:54:50.214Z,62.4
2017-08-25T11:56:02.500Z,62.33
2017-08-25T11:57:13.304Z,62.52
2017-08-25T11:58:23.659Z,62.62
2017-08-25T11:59:34.019Z,62.13
2017-08-25T12:00:44.380Z,62.13
2017-08-25T12:01:54.463Z,62.52
2017-08-25T12:03:04.814Z,62.33
2017-08-25T12:04:14.845Z,62.46
2017-08-25T12:05:24.879Z,62.36
2017-08-25T12:06:35.235Z,62.46
2017-08-25T12:07:45.337Z,62.26
2017-08-25T12:08:55.686Z,62.19
2017-08-25T12:10:06.037Z,62.36
2017-08-25T12:11:16.413Z,62.36
2017-08-25T12:12:26.462Z,62.65
2017-08-25T12:13:36.573Z,62.46
2017-08-25T12:14:46.925Z,62.85
2017-08-25T12:15:57.279Z,62.85
2017-08-25T12:17:08.935Z,62.75
2017-08-25T12:18:19.294Z,62.85
2017-08-25T12:19:29.375Z,62.55
2017-08-25T12:20:39.726Z,62.49
2017-08-25T12:21:50.083Z,62.36
2017-08-25T12:23:00.421Z,62.75
2017-08-25T12:24:10.455Z,62.75
2017-08-25T12:25:20.548Z,62.65
2017-08-25T12:26:30.590Z,62.85
2017-08-25T12:27:43.250Z,62.55
2017-08-25T12:28:53.278Z,62.65
2017-08-25T12:30:03.619Z,62.65
2017-08-25T12:31:14.015Z,62.95
2017-08-25T12:32:24.379Z,62.55
2017-08-25T12:33:34.425Z,62.55
2017-08-25T12:34:45.348Z,62.46
2017-08-25T12:35:57.087Z,62.26
2017-08-25T12:37:07.492Z,62.29
2017-08-25T12:38:17.533Z,62.29
2017-08-25T12:39:27.886Z,62.29
2017-08-25T12:40:37.913Z,62.38
2017-08-25T12:41:48.263Z,62.38
2017-08-25T12:42:58.352Z,62.71
2017-08-25T12:44:08.389Z,62.38
2017-08-25T12:45:18.743Z,62.81
2017-08-25T12:46:29.132Z,62.49
2017-08-25T12:47:39.919Z,62.68
2017-08-25T12:48:50.014Z,63.37
2017-08-25T12:50:00.369Z,63.37
2017-08-25T12:51:10.723Z,62.59
2017-08-25T12:52:21.073Z,63.47
2017-08-25T12:53:31.114Z,63.57
2017-08-25T12:54:41.515Z,63.67
2017-08-25T12:55:51.970Z,63.47
2017-08-25T12:57:02.460Z,63.67
2017-08-25T12:58:12.504Z,63.57
2017-08-25T12:59:24.060Z,63.37
2017-08-25T13:00:34.171Z,62.98
2017-08-25T13:01:44.543Z,63.47
2017-08-25T13:02:54.926Z,63.37
2017-08-25T13:04:04.970Z,63.57
2017-08-25T13:05:15.326Z,62.78
2017-08-25T13:06:25.757Z,63.11
2017-08-25T13:07:35.809Z,62.91
2017-08-25T13:08:50.473Z,63.67
2017-08-25T13:10:00.536Z,63.57
2017-08-25T13:11:10.929Z,63.28
2017-08-25T13:12:21.343Z,62.98
2017-08-25T13:13:31.397Z,63.57
2017-08-25T13:14:41.119Z,63.57
2017-08-25T13:15:51.175Z,63.37
2017-08-25T13:17:01.533Z,63.18
2017-08-25T13:18:11.968Z,63.18
2017-08-25T13:19:22.332Z,63.28
2017-08-25T13:20:32.360Z,63.47
2017-08-25T13:21:42.404Z,62.68
2017-08-25T13:22:52.451Z,63.5
2017-08-25T13:24:02.871Z,63.4
2017-08-25T13:25:13.223Z,62.62
2017-08-25T13:26:23.276Z,62.91
2017-08-25T13:27:33.619Z,62.71
2017-08-25T13:28:45.479Z,63.5
2017-08-25T13:29:55.897Z,63.01
2017-08-25T13:31:06.266Z,63.31
2017-08-25T13:32:16.625Z,63.01
2017-08-25T13:33:26.674Z,63.18
2017-08-25T13:34:37.024Z,63.08
2017-08-25T13:35:47.435Z,63.28
2017-08-25T13:36:57.783Z,63.47
2017-08-25T13:38:07.851Z,63.08
2017-08-25T13:39:18.222Z,63.47
2017-08-25T13:40:28.271Z,63.21
2017-08-25T13:41:38.689Z,63.28
2017-08-25T13:42:51.566Z,63.57
2017-08-25T13:44:01.929Z,62.91
2017-08-25T13:45:12.642Z,63.01
2017-08-25T13:46:23.003Z,62.91
2017-08-25T13:47:33.640Z,62.71
2017-08-25T13:48:44.026Z,63.04
2017-08-25T13:49:56.013Z,62.84
2017-08-25T13:51:06.357Z,62.71
2017-08-25T13:52:16.726Z,62.81
2017-08-25T13:53:29.344Z,63.5
2017-08-25T13:54:39.702Z,63.6
2017-08-25T13:55:50.051Z,63.01
2017-08-25T13:57:00.420Z,63.11
2017-08-25T13:58:10.482Z,63.01
2017-08-25T13:59:21.036Z,63.67
2017-08-25T14:00:33.228Z,63.47
2017-08-25T14:01:45.107Z,63.57
2017-08-25T14:02:55.541Z,63.77
2017-08-25T14:04:05.918Z,63.47
2017-08-25T14:05:16.041Z,63.87
2017-08-25T14:06:26.409Z,63.37
2017-08-25T14:07:36.765Z,63.18
2017-08-25T14:08:46.850Z,63.37
2017-08-25T14:09:56.927Z,62.88
2017-08-25T14:11:08.216Z,63.47
2017-08-25T14:12:18.596Z,63.87
2017-08-25T14:13:28.963Z,63.54
2017-08-25T14:14:39.361Z,63.57
2017-08-25T14:15:49.729Z,63.57
2017-08-25T14:17:02.943Z,63.54
2017-08-25T14:18:13.305Z,63.57
2017-08-25T14:19:23.041Z,63.54
2017-08-25T14:20:33.913Z,63.67
2017-08-25T14:21:43.641Z,63.64
2017-08-25T14:22:53.737Z,63.64
2017-08-25T14:24:04.442Z,63.73
2017-08-25T14:25:15.631Z,63.73
2017-08-25T14:26:26.017Z,63.73
2017-08-25T14:27:37.384Z,63.73
2017-08-25T14:28:47.471Z,63.54
2017-08-25T14:29:57.847Z,63.57
2017-08-25T14:31:08.206Z,63.73
2017-08-25T14:32:18.246Z,63.73
2017-08-25T14:33:28.323Z,63.84
2017-08-25T14:34:38.725Z,63.64
2017-08-25T14:35:49.079Z,63.64
2017-08-25T14:36:59.149Z,63.64
2017-08-25T14:38:09.520Z,63.64
2017-08-25T14:39:19.810Z,63.64
2017-08-25T14:40:30.264Z,63.28
2017-08-25T14:41:40.964Z,63.64
2017-08-25T14:42:52.246Z,63.37
2017-08-25T14:44:02.321Z,63.64
2017-08-25T14:45:12.683Z,63.34
2017-08-25T14:46:22.792Z,63.44
2017-08-25T14:47:33.158Z,63.47
2017-08-25T14:48:43.202Z,63.54
2017-08-25T14:49:54.188Z,63.73
2017-08-25T14:51:04.985Z,63.93
2017-08-25T14:52:15.437Z,63.93
2017-08-25T14:53:26.508Z,63.73
2017-08-25T14:54:36.915Z,63.93
2017-08-25T14:55:47.022Z,63.93
2017-08-25T14:56:56.748Z,64.23
2017-08-25T14:58:06.850Z,64.13
2017-08-25T14:59:17.201Z,64.03
2017-08-25T15:00:27.541Z,64.03
2017-08-25T15:01:37.592Z,63.93
2017-08-25T15:02:48.013Z,64.03
2017-08-25T15:03:58.104Z,63.93
2017-08-25T15:05:10.910Z,63.9
2017-08-25T15:06:21.297Z,63.93
2017-08-25T15:07:31.664Z,63.6
2017-08-25T15:08:43.857Z,63.51
2017-08-25T15:09:54.277Z,63.9
2017-08-25T15:11:04.669Z,63.81
2017-08-25T15:12:15.045Z,63.6
2017-08-25T15:13:27.378Z,63.7
2017-08-25T15:14:37.785Z,63.6
2017-08-25T15:15:57.202Z,64.07
2017-08-25T15:17:07.576Z,63.97
2017-08-25T15:18:21.494Z,64.17
2017-08-25T15:19:31.857Z,63.97
2017-08-25T15:20:42.231Z,64.07
2017-08-25T15:21:52.661Z,63.78
2017-08-25T15:23:02.717Z,63.78
2017-08-25T15:24:13.115Z,63.78
2017-08-25T15:25:23.471Z,63.97
2017-08-25T15:26:33.889Z,63.78
2017-08-25T15:27:45.157Z,64.36
2017-08-25T15:28:55.565Z,64.46
2017-08-25T15:30:05.943Z,64.23
2017-08-25T15:31:19.061Z,64.26
2017-08-25T15:32:31.884Z,64.14
2017-08-25T15:33:44.841Z,64.33
2017-08-25T15:34:55.211Z,64.23
2017-08-25T15:36:05.581Z,64.14
2017-08-25T15:37:15.967Z,64.14
2017-08-25T15:38:26.390Z,64.43
2017-08-25T15:39:36.760Z,64.33
2017-08-25T15:40:47.117Z,64.14